Time;durP1;ratioP1;P1;durP2;ratioP2;P2;SDS_P1;SDS_P2;PMS_P1;PMS_P2;Temp;Humidity;BMP_temperature;BMP_pressure;BME280_temperature;BME280_humidity;BME280_pressure;Samples;Min_cycle;Max_cycle;Signal;HPM_P1;HPM_P2
2022/12/24 00:00:21;;;;;;;0.57;0.57;;;6.00;99.90;;;;;;5029471;28;19928;-86
2022/12/24 00:02:46;;;;;;;0.50;0.50;;;6.00;99.90;;;;;;5028628;28;20048;-86
2022/12/24 00:05:12;;;;;;;0.50;0.50;;;6.00;99.90;;;;;;5018680;28;20068;-87
2022/12/24 00:07:38;;;;;;;0.60;0.60;;;6.00;99.90;;;;;;5035918;28;20044;-87
2022/12/24 00:10:04;;;;;;;0.90;0.90;;;6.10;99.90;;;;;;5018088;28;20095;-88
2022/12/24 00:12:30;;;;;;;0.40;0.40;;;6.00;99.90;;;;;;5030959;28;20076;-86
2022/12/24 00:14:56;;;;;;;0.60;0.60;;;6.00;99.90;;;;;;5034040;28;20261;-86
2022/12/24 00:17:22;;;;;;;0.60;0.60;;;6.10;99.90;;;;;;5035134;28;20479;-86
2022/12/24 00:19:48;;;;;;;0.50;0.50;;;6.10;99.90;;;;;;5037435;28;20044;-85
2022/12/24 00:22:13;;;;;;;0.45;0.45;;;6.00;99.90;;;;;;5022475;28;20049;-87
2022/12/24 00:24:39;;;;;;;0.50;0.50;;;6.00;99.90;;;;;;5037785;28;20053;-86
2022/12/24 00:27:05;;;;;;;0.68;0.68;;;6.00;99.90;;;;;;5036305;28;20131;-85
2022/12/24 00:29:31;;;;;;;0.40;0.40;;;6.00;99.90;;;;;;5022097;28;20085;-84
2022/12/24 00:31:57;;;;;;;0.50;0.50;;;6.10;99.90;;;;;;5038472;28;21956;-85
2022/12/24 00:34:24;;;;;;;0.50;0.50;;;6.00;99.90;;;;;;5045849;28;20044;-89
2022/12/24 00:36:50;;;;;;;0.50;0.50;;;6.00;99.90;;;;;;5022692;28;20045;-85
2022/12/24 00:39:16;;;;;;;0.30;0.30;;;6.00;99.90;;;;;;5023483;28;20056;-87
2022/12/24 00:41:41;;;;;;;0.60;0.60;;;6.00;99.90;;;;;;5042869;28;20048;-87
2022/12/24 00:44:11;;;;;;;0.50;0.50;;;6.00;99.90;;;;;;5061529;28;20061;-85
2022/12/24 00:46:39;;;;;;;0.63;0.47;;;6.00;99.90;;;;;;5040808;28;20049;-87
2022/12/24 00:49:06;;;;;;;0.50;0.50;;;6.00;99.90;;;;;;5034423;28;20385;-85
2022/12/24 00:51:33;;;;;;;0.47;0.47;;;5.80;99.90;;;;;;5037063;28;20047;-87
2022/12/24 00:53:59;;;;;;;0.60;0.60;;;6.00;99.90;;;;;;5040262;28;20168;-85
2022/12/24 00:56:25;;;;;;;0.57;0.57;;;6.00;99.90;;;;;;5024219;28;20138;-85
2022/12/24 00:58:51;;;;;;;0.40;0.40;;;6.00;99.90;;;;;;5041380;28;20072;-85
2022/12/24 01:01:17;;;;;;;;;;;6.10;99.90;;;;;;5058428;28;20052;-86
2022/12/24 01:03:43;;;;;;;0.50;0.50;;;6.00;99.90;;;;;;5041261;28;19947;-85
2022/12/24 01:06:12;;;;;;;0.57;0.57;;;6.00;99.90;;;;;;5042030;28;20033;-86
2022/12/24 01:08:38;;;;;;;0.50;0.50;;;6.00;99.90;;;;;;5020544;28;21534;-86
2022/12/24 01:11:05;;;;;;;0.50;0.50;;;6.00;99.90;;;;;;5041161;28;20068;-87
2022/12/24 01:13:31;;;;;;;0.57;0.57;;;6.00;99.90;;;;;;5037249;28;20032;-87
2022/12/24 01:15:57;;;;;;;0.50;0.50;;;6.00;99.90;;;;;;5022885;28;20055;-85
2022/12/24 01:18:24;;;;;;;0.50;0.50;;;6.00;99.90;;;;;;5024133;28;20387;-84
2022/12/24 01:21:02;;;;;;;0.52;0.52;;;6.00;99.90;;;;;;5038858;28;20033;-86
2022/12/24 01:23:30;;;;;;;0.60;0.60;;;6.00;99.90;;;;;;5039933;28;20069;-86
2022/12/24 01:26:00;;;;;;;0.40;0.40;;;6.00;99.90;;;;;;5040309;28;20052;-85
2022/12/24 01:28:26;;;;;;;0.50;0.50;;;6.00;99.90;;;;;;5035434;28;20128;-85
2022/12/24 01:30:52;;;;;;;;;;;6.00;99.90;;;;;;5058768;28;20049;-85
2022/12/24 01:33:17;;;;;;;0.60;0.60;;;6.00;99.90;;;;;;5039210;28;19935;-85
2022/12/24 01:35:43;;;;;;;0.50;0.50;;;6.00;99.90;;;;;;5036156;28;20040;-85
2022/12/24 01:38:10;;;;;;;0.43;0.43;;;6.00;99.90;;;;;;5024129;28;20163;-85
2022/12/24 01:43:27;;;;;;;0.45;0.45;;;6.00;99.90;;;;;;5035675;28;20041;-85
2022/12/24 01:46:03;;;;;;;0.60;0.60;;;6.00;99.90;;;;;;5037724;28;21301;-85
2022/12/24 01:48:56;;;;;;;0.50;0.50;;;6.00;99.90;;;;;;5041019;28;20559;-85
2022/12/24 01:51:29;;;;;;;0.60;0.60;;;6.00;99.90;;;;;;5050800;28;20066;-85
2022/12/24 01:54:11;;;;;;;0.50;0.50;;;6.00;99.90;;;;;;5041054;28;20056;-87
2022/12/24 01:56:43;;;;;;;0.60;0.60;;;6.00;99.90;;;;;;5042668;28;20063;-88
2022/12/24 01:59:12;;;;;;;0.50;0.50;;;6.00;99.90;;;;;;5040390;28;20053;-84
2022/12/24 02:01:38;;;;;;;0.50;0.50;;;6.00;99.90;;;;;;5022370;28;20423;-85
2022/12/24 02:04:12;;;;;;;0.60;0.60;;;6.00;99.90;;;;;;5023473;28;20053;-86
2022/12/24 02:06:38;;;;;;;0.50;0.50;;;6.00;99.90;;;;;;5039052;28;20150;-85
2022/12/24 02:09:03;;;;;;;0.50;0.50;;;6.00;99.90;;;;;;5027623;28;20049;-86
2022/12/24 02:11:29;;;;;;;0.60;0.60;;;6.00;99.90;;;;;;5022540;28;20278;-85
2022/12/24 02:13:59;;;;;;;;;;;6.00;99.90;;;;;;5038775;28;20049;-85
2022/12/24 02:16:59;;;;;;;0.50;0.50;;;6.00;99.90;;;;;;5040072;28;19929;-84
2022/12/24 02:19:34;;;;;;;0.47;0.47;;;6.00;99.90;;;;;;5038829;28;20117;-87
2022/12/24 02:22:26;;;;;;;0.60;0.60;;;6.00;99.90;;;;;;5018875;28;20097;-85
2022/12/24 02:25:04;;;;;;;0.60;0.60;;;6.00;99.90;;;;;;5039131;28;20053;-86
2022/12/24 02:27:52;;;;;;;0.60;0.60;;;6.00;99.90;;;;;;5021109;28;20284;-85
2022/12/24 02:30:30;;;;;;;0.50;0.50;;;6.00;99.90;;;;;;5037396;28;20070;-86
2022/12/24 02:33:08;;;;;;;0.40;0.40;;;6.00;99.90;;;;;;5020481;28;20128;-84
2022/12/24 02:35:43;;;;;;;0.43;0.43;;;6.00;99.90;;;;;;5020801;28;20036;-86
2022/12/24 02:38:27;;;;;;;0.40;0.40;;;6.00;99.90;;;;;;5020893;28;20045;-86
2022/12/24 02:41:13;;;;;;;0.60;0.60;;;6.00;99.90;;;;;;5039282;28;20597;-86
2022/12/24 02:43:43;;;;;;;0.50;0.50;;;6.10;99.90;;;;;;5036190;28;20037;-85
2022/12/24 02:46:18;;;;;;;0.50;0.50;;;6.00;99.90;;;;;;5024531;28;20052;-87
2022/12/24 02:48:46;;;;;;;0.52;0.52;;;6.10;99.90;;;;;;5039689;28;20045;-85
2022/12/24 02:51:13;;;;;;;0.50;0.50;;;6.10;99.90;;;;;;5041075;28;20143;-86
2022/12/24 02:53:38;;;;;;;;;;;6.70;99.90;;;;;;5039892;28;20053;-87
2022/12/24 02:56:10;;;;;;;0.60;0.60;;;6.00;99.90;;;;;;5039348;28;20364;-86
2022/12/24 02:58:45;;;;;;;0.45;0.45;;;6.10;99.90;;;;;;5053638;28;20041;-87
2022/12/24 03:01:16;;;;;;;0.70;0.70;;;6.00;99.90;;;;;;5038715;28;20044;-86
2022/12/24 03:04:14;;;;;;;0.60;0.60;;;6.10;99.90;;;;;;5039990;28;20091;-86
2022/12/24 03:06:48;;;;;;;0.60;0.60;;;6.10;99.90;;;;;;5041645;28;20049;-84
2022/12/24 03:09:20;;;;;;;0.60;0.60;;;6.10;99.90;;;;;;5039464;28;20132;-86
2022/12/24 03:11:54;;;;;;;0.50;0.50;;;6.10;99.90;;;;;;5052057;28;20099;-87
2022/12/24 03:14:21;;;;;;;0.50;0.50;;;6.10;99.90;;;;;;5021287;28;20052;-85
2022/12/24 03:16:48;;;;;;;0.60;0.60;;;6.10;99.90;;;;;;5038575;28;20044;-87
2022/12/24 03:19:14;;;;;;;0.50;0.50;;;6.10;99.90;;;;;;5015025;28;20044;-87
2022/12/24 03:21:41;;;;;;;0.50;0.50;;;6.10;99.90;;;;;;5035829;28;20049;-87
2022/12/24 03:24:09;;;;;;;0.50;0.50;;;6.20;99.90;;;;;;5039795;28;20496;-87
2022/12/24 03:26:37;;;;;;;1.40;1.40;;;6.20;99.90;;;;;;5028594;28;20072;-86
2022/12/24 03:29:07;;;;;;;1.15;1.13;;;6.20;99.90;;;;;;5052406;28;20072;-86
2022/12/24 03:31:43;;;;;;;0.63;0.63;;;6.30;99.90;;;;;;5040023;28;20068;-86
2022/12/24 03:34:10;;;;;;;5.68;2.15;;;6.40;99.90;;;;;;5040988;28;20055;-85
2022/12/24 03:36:36;;;;;;;0.82;0.82;;;6.50;99.90;;;;;;5038256;28;20048;-86
2022/12/24 03:39:03;;;;;;;0.85;0.85;;;6.50;99.90;;;;;;5039413;28;20044;-86
2022/12/24 03:41:28;;;;;;;2.45;2.13;;;6.60;99.90;;;;;;5058405;28;20045;-85
2022/12/24 03:43:54;;;;;;;0.75;0.75;;;6.70;99.90;;;;;;5026331;28;20045;-84
2022/12/24 03:46:20;;;;;;;0.63;0.63;;;6.80;99.90;;;;;;5035617;28;20142;-87
2022/12/24 03:48:45;;;;;;;2.20;1.60;;;6.90;99.90;;;;;;5038464;28;20091;-85
2022/12/24 03:51:20;;;;;;;6.30;3.65;;;6.90;99.90;;;;;;5039770;28;20049;-85
2022/12/24 03:53:46;;;;;;;0.50;0.50;;;7.00;99.90;;;;;;5036477;28;20120;-88
2022/12/24 03:56:12;;;;;;;0.63;0.63;;;7.10;99.90;;;;;;5039458;28;20128;-84
2022/12/24 03:58:37;;;;;;;0.70;0.70;;;7.10;99.90;;;;;;5006929;28;20037;-84
2022/12/24 04:01:03;;;;;;;1.35;1.30;;;7.10;99.90;;;;;;5042717;28;20048;-85
2022/12/24 04:03:29;;;;;;;3.60;3.33;;;7.20;99.90;;;;;;5025044;28;20041;-88
2022/12/24 04:06:13;;;;;;;0.60;0.60;;;7.30;99.90;;;;;;5052115;28;20045;-87
2022/12/24 04:08:39;;;;;;;0.82;0.82;;;7.30;99.90;;;;;;5041094;28;20067;-86
2022/12/24 04:11:07;;;;;;;1.35;1.25;;;7.40;99.90;;;;;;5024624;28;20053;-88
2022/12/24 04:13:32;;;;;;;0.50;0.50;;;7.40;99.90;;;;;;5039102;28;20041;-86
2022/12/24 04:16:03;;;;;;;0.43;0.43;;;7.40;99.90;;;;;;5032254;28;20045;-86
2022/12/24 04:18:30;;;;;;;0.82;0.82;;;7.40;99.90;;;;;;5038962;28;20110;-85
2022/12/24 04:20:56;;;;;;;0.95;0.95;;;7.40;99.90;;;;;;5040797;28;21188;-86
2022/12/24 04:23:22;;;;;;;0.55;0.55;;;7.50;99.90;;;;;;5019840;28;20041;-86
2022/12/24 04:25:48;;;;;;;0.60;0.60;;;7.50;99.90;;;;;;5023422;28;20055;-85
2022/12/24 04:28:14;;;;;;;0.40;0.40;;;7.50;99.90;;;;;;5057150;28;20044;-85
2022/12/24 04:30:41;;;;;;;0.70;0.70;;;7.50;99.90;;;;;;5025090;28;20056;-87
2022/12/24 04:33:06;;;;;;;;;;;7.50;99.90;;;;;;5041749;28;20094;-85
2022/12/24 04:35:32;;;;;;;0.60;0.60;;;7.50;99.90;;;;;;5037733;28;20015;-86
2022/12/24 04:37:58;;;;;;;0.60;0.60;;;7.60;99.90;;;;;;5041454;28;20049;-84
2022/12/24 04:40:24;;;;;;;0.60;0.60;;;7.60;99.90;;;;;;5022937;28;20048;-86
2022/12/24 04:42:50;;;;;;;0.47;0.47;;;7.60;99.90;;;;;;5040317;28;20045;-87
2022/12/24 04:45:17;;;;;;;0.50;0.50;;;7.60;99.90;;;;;;5026323;28;20072;-85
2022/12/24 04:47:42;;;;;;;0.80;0.80;;;7.70;99.90;;;;;;5040269;28;20806;-86
2022/12/24 04:50:09;;;;;;;0.45;0.45;;;7.80;99.90;;;;;;5009176;28;20056;-86
2022/12/24 04:52:35;;;;;;;1.15;1.05;;;7.90;99.90;;;;;;5021371;28;20086;-86
2022/12/24 04:55:01;;;;;;;0.80;0.80;;;7.90;99.90;;;;;;5039632;28;20036;-85
2022/12/24 04:57:27;;;;;;;0.60;0.60;;;7.90;99.90;;;;;;5059041;28;20047;-86
2022/12/24 04:59:52;;;;;;;1.40;1.40;;;8.00;99.90;;;;;;5057698;28;20175;-84
2022/12/24 05:02:18;;;;;;;0.65;0.65;;;7.90;99.90;;;;;;5056502;28;20068;-84
2022/12/24 05:04:44;;;;;;;1.15;1.15;;;7.90;99.90;;;;;;5056766;28;20041;-85
2022/12/24 05:07:09;;;;;;;0.50;0.50;;;7.80;99.90;;;;;;5045590;28;20045;-86
2022/12/24 05:09:35;;;;;;;0.52;0.52;;;7.80;99.90;;;;;;5030405;28;20037;-83
2022/12/24 05:12:01;;;;;;;1.45;1.35;;;7.80;99.90;;;;;;5019732;28;20804;-86
2022/12/24 05:14:27;;;;;;;0.65;0.65;;;7.80;99.90;;;;;;5022987;28;20059;-86
2022/12/24 05:16:52;;;;;;;0.60;0.60;;;7.80;99.90;;;;;;5040408;28;20060;-87
2022/12/24 05:19:18;;;;;;;0.60;0.60;;;7.90;99.90;;;;;;5045318;28;20033;-85
2022/12/24 05:26:20;;;;;;;1.35;1.25;;;7.90;99.90;;;;;;5003359;28;20133;-84
2022/12/24 05:27:13;;;;;;;0.60;0.60;;;7.90;99.90;;;;;;5041994;28;20033;-87
2022/12/24 05:29:39;;;;;;;0.40;0.40;;;7.90;99.90;;;;;;5027591;28;20189;-84
2022/12/24 05:32:05;;;;;;;0.40;0.40;;;7.90;99.90;;;;;;5040306;28;20702;-87
2022/12/24 05:34:32;;;;;;;0.68;0.68;;;8.00;99.90;;;;;;5022369;28;20048;-86
2022/12/24 05:36:57;;;;;;;0.70;0.70;;;7.90;99.90;;;;;;5038349;28;20071;-87
2022/12/24 05:39:23;;;;;;;0.60;0.60;;;8.00;99.90;;;;;;5018602;28;20151;-87
2022/12/24 05:41:48;;;;;;;1.92;0.77;;;8.00;99.90;;;;;;5036781;28;20075;-86
2022/12/24 05:44:15;;;;;;;0.60;0.60;;;8.00;99.90;;;;;;5036929;28;20079;-86
2022/12/24 05:46:41;;;;;;;0.40;0.40;;;8.00;99.90;;;;;;5038712;28;20041;-85
2022/12/24 05:49:07;;;;;;;1.20;0.88;;;8.00;99.90;;;;;;4986592;28;20206;-84
2022/12/24 05:51:32;;;;;;;0.40;0.40;;;8.00;99.90;;;;;;5035716;28;20049;-87
2022/12/24 05:53:58;;;;;;;0.40;0.40;;;8.00;99.90;;;;;;5034243;28;20076;-85
2022/12/24 05:56:25;;;;;;;0.82;0.82;;;8.00;99.90;;;;;;5032448;28;20045;-87
2022/12/24 05:58:53;;;;;;;0.65;0.65;;;8.00;99.90;;;;;;5037668;28;20049;-87
2022/12/24 06:01:20;;;;;;;0.60;0.60;;;8.00;99.90;;;;;;5019173;28;20800;-85
2022/12/24 06:03:48;;;;;;;0.52;0.52;;;8.10;99.90;;;;;;5038618;28;20608;-86
2022/12/24 06:06:19;;;;;;;3.92;1.65;;;8.10;99.90;;;;;;5035340;28;20140;-85
2022/12/24 06:08:46;;;;;;;0.60;0.60;;;8.10;99.90;;;;;;5035909;28;20041;-86
2022/12/24 06:11:14;;;;;;;0.50;0.50;;;8.10;99.90;;;;;;5039603;28;20056;-85
2022/12/24 06:13:41;;;;;;;0.40;0.40;;;8.10;99.90;;;;;;5051166;28;20053;-86
2022/12/24 06:16:11;;;;;;;0.40;0.40;;;7.70;99.90;;;;;;5017132;28;20029;-86
2022/12/24 06:18:37;;;;;;;0.50;0.50;;;8.10;99.90;;;;;;5023624;28;20081;-87
2022/12/24 06:21:04;;;;;;;0.80;0.70;;;8.00;99.90;;;;;;5035381;28;20156;-86
2022/12/24 06:23:32;;;;;;;0.47;0.47;;;8.00;99.90;;;;;;5019088;28;20095;-84
2022/12/24 06:26:02;;;;;;;0.70;0.70;;;8.00;99.90;;;;;;5038321;28;20033;-87
2022/12/24 06:28:33;;;;;;;0.50;0.50;;;8.00;99.90;;;;;;5038921;28;20127;-86
2022/12/24 06:31:00;;;;;;;0.50;0.50;;;8.00;99.90;;;;;;5036669;28;20052;-85
2022/12/24 06:33:26;;;;;;;0.40;0.40;;;8.00;99.90;;;;;;5022572;28;20044;-85
2022/12/24 06:35:51;;;;;;;0.50;0.50;;;8.00;99.90;;;;;;5022802;28;20076;-85
2022/12/24 06:38:17;;;;;;;0.60;0.60;;;8.00;99.90;;;;;;5039260;28;20177;-86
2022/12/24 06:40:44;;;;;;;0.60;0.60;;;8.00;99.90;;;;;;5040613;28;20044;-85
2022/12/24 06:43:11;;;;;;;0.60;0.60;;;8.00;99.90;;;;;;5039392;28;20206;-84
2022/12/24 06:45:36;;;;;;;0.40;0.40;;;8.00;99.90;;;;;;5037925;28;20135;-86
2022/12/24 06:48:03;;;;;;;0.50;0.50;;;8.00;99.90;;;;;;5039719;28;22073;-85
2022/12/24 06:50:28;;;;;;;;;;;8.00;99.90;;;;;;5006372;28;20076;-86
2022/12/24 06:52:54;;;;;;;1.00;0.93;;;8.00;99.90;;;;;;5042250;28;19979;-85
2022/12/24 06:55:20;;;;;;;0.50;0.50;;;8.00;99.90;;;;;;5022998;28;20041;-87
2022/12/24 06:57:45;;;;;;;0.40;0.40;;;8.00;99.90;;;;;;5038942;28;20228;-85
2022/12/24 07:00:12;;;;;;;0.40;0.40;;;8.00;99.90;;;;;;5039888;28;20062;-87
2022/12/24 07:02:42;;;;;;;0.50;0.50;;;8.00;99.90;;;;;;5037900;28;20045;-85
2022/12/24 07:05:10;;;;;;;0.70;0.70;;;8.10;99.90;;;;;;5048166;28;20308;-85
2022/12/24 07:07:43;;;;;;;2.28;1.67;;;8.10;99.90;;;;;;5038589;28;20054;-86
2022/12/24 07:10:15;;;;;;;1.45;0.85;;;8.10;99.90;;;;;;5037864;28;20080;-86
2022/12/24 07:12:41;;;;;;;0.52;0.52;;;8.10;99.90;;;;;;5037607;28;20049;-85
2022/12/24 07:15:08;;;;;;;0.50;0.50;;;8.10;99.90;;;;;;5037929;28;20048;-86
2022/12/24 07:17:33;;;;;;;0.40;0.40;;;8.10;99.90;;;;;;5036911;28;20068;-84
2022/12/24 07:19:59;;;;;;;0.60;0.60;;;8.10;99.90;;;;;;5021799;28;20045;-85
2022/12/24 07:22:25;;;;;;;0.50;0.50;;;8.10;99.90;;;;;;5022033;28;20044;-87
2022/12/24 07:24:51;;;;;;;1.05;1.00;;;8.10;99.90;;;;;;5019440;28;20066;-84
2022/12/24 07:27:16;;;;;;;0.60;0.60;;;8.10;99.90;;;;;;5018445;28;20171;-86
2022/12/24 07:29:42;;;;;;;1.48;1.38;;;8.20;99.90;;;;;;5016596;28;20049;-86
2022/12/24 07:32:08;;;;;;;1.48;1.48;;;8.10;99.90;;;;;;5039607;28;20079;-87
2022/12/24 07:34:34;;;;;;;0.40;0.40;;;8.10;99.90;;;;;;5027136;28;20132;-85
2022/12/24 07:36:59;;;;;;;0.60;0.60;;;8.00;99.90;;;;;;5019293;28;20136;-84
2022/12/24 07:39:25;;;;;;;0.70;0.70;;;7.90;99.90;;;;;;5035310;28;20048;-84
2022/12/24 07:41:51;;;;;;;0.70;0.70;;;7.80;99.90;;;;;;5023126;28;20068;-86
2022/12/24 07:44:17;;;;;;;2.83;1.27;;;7.80;99.90;;;;;;5040562;28;20288;-86
2022/12/24 07:46:43;;;;;;;0.65;0.65;;;8.40;99.90;;;;;;5043059;28;20132;-87
2022/12/24 07:49:09;;;;;;;0.73;0.73;;;6.60;99.90;;;;;;5023658;28;20172;-86
2022/12/24 07:51:35;;;;;;;0.57;0.57;;;7.50;99.90;;;;;;5040591;28;20231;-86
2022/12/24 07:54:03;;;;;;;1.05;1.05;;;7.50;99.90;;;;;;5043601;28;20048;-86
2022/12/24 07:56:33;;;;;;;0.43;0.43;;;7.40;99.90;;;;;;5040233;28;20491;-86
2022/12/24 07:58:58;;;;;;;0.50;0.50;;;7.50;99.90;;;;;;5041571;28;20075;-86
2022/12/24 08:01:24;;;;;;;0.57;0.57;;;7.60;99.90;;;;;;5040472;28;20057;-85
2022/12/24 08:03:53;;;;;;;0.70;0.70;;;7.60;99.90;;;;;;5039060;28;20056;-85
2022/12/24 08:06:19;;;;;;;0.60;0.60;;;7.60;99.90;;;;;;5019109;28;20084;-86
2022/12/24 08:08:45;;;;;;;0.57;0.57;;;7.60;99.90;;;;;;5026497;28;20103;-86
2022/12/24 08:11:11;;;;;;;0.52;0.52;;;7.70;99.90;;;;;;5027565;28;20498;-86
2022/12/24 08:13:37;;;;;;;0.60;0.60;;;7.70;99.90;;;;;;5023599;28;20128;-87
2022/12/24 08:16:04;;;;;;;0.60;0.60;;;7.80;99.90;;;;;;5021046;28;20129;-85
2022/12/24 08:18:29;;;;;;;0.45;0.45;;;7.80;99.90;;;;;;5017604;28;20024;-85
2022/12/24 08:20:55;;;;;;;0.60;0.60;;;7.90;99.90;;;;;;5037945;28;20909;-86
2022/12/24 08:23:21;;;;;;;1.25;1.05;;;7.90;99.90;;;;;;5029839;28;20056;-84
2022/12/24 08:25:47;;;;;;;0.50;0.50;;;7.80;99.90;;;;;;5011333;28;20053;-87
2022/12/24 08:28:16;;;;;;;0.50;0.50;;;7.90;99.90;;;;;;5040210;28;20384;-85
2022/12/24 08:30:42;;;;;;;0.40;0.40;;;7.80;99.90;;;;;;5044808;28;20476;-85
2022/12/24 08:33:07;;;;;;;0.73;0.73;;;7.80;99.90;;;;;;5033678;28;20048;-84
2022/12/24 08:35:33;;;;;;;1.45;1.45;;;7.90;99.90;;;;;;5049134;28;20049;-85
2022/12/24 08:37:59;;;;;;;0.43;0.43;;;7.90;99.90;;;;;;5023316;28;20056;-83
2022/12/24 08:40:25;;;;;;;0.93;0.93;;;8.00;99.90;;;;;;5026487;28;20164;-85
2022/12/24 08:42:51;;;;;;;;;;;8.00;99.90;;;;;;5026208;28;20329;-84
2022/12/24 08:45:17;;;;;;;0.85;0.85;;;8.10;99.90;;;;;;5045676;28;19929;-87
2022/12/24 08:47:42;;;;;;;1.10;1.10;;;8.10;99.90;;;;;;5037217;28;20068;-86
2022/12/24 08:50:10;;;;;;;0.98;0.98;;;8.20;99.90;;;;;;5026255;28;20381;-87
2022/12/24 08:52:36;;;;;;;0.50;0.50;;;8.20;99.90;;;;;;5030592;28;20172;-86
2022/12/24 08:55:02;;;;;;;;;;;8.30;99.90;;;;;;5023926;28;20041;-84
2022/12/24 08:57:28;;;;;;;0.47;0.47;;;8.30;99.90;;;;;;5041838;28;19995;-86
2022/12/24 08:59:53;;;;;;;1.23;1.02;;;8.30;99.90;;;;;;5042879;28;20098;-85
2022/12/24 09:02:20;;;;;;;0.45;0.45;;;8.30;99.90;;;;;;5026812;28;20106;-87
2022/12/24 09:04:45;;;;;;;0.93;0.93;;;8.30;99.90;;;;;;5048227;28;20044;-86
2022/12/24 09:07:11;;;;;;;0.63;0.63;;;8.40;99.90;;;;;;5026693;28;20037;-87
2022/12/24 09:09:37;;;;;;;0.40;0.40;;;8.40;99.90;;;;;;5026840;28;20098;-87
2022/12/24 09:12:04;;;;;;;0.50;0.50;;;8.40;99.90;;;;;;5049745;28;20049;-86
2022/12/24 09:14:30;;;;;;;0.45;0.45;;;8.40;99.90;;;;;;5047016;28;20789;-86
2022/12/24 09:16:56;;;;;;;0.73;0.73;;;8.40;99.90;;;;;;5044392;28;20053;-84
2022/12/24 09:19:21;;;;;;;1.30;1.30;;;8.40;99.90;;;;;;5046178;28;20380;-88
2022/12/24 09:21:47;;;;;;;0.60;0.60;;;8.40;99.90;;;;;;5038858;28;20048;-86
2022/12/24 09:24:13;;;;;;;0.60;0.60;;;8.50;99.90;;;;;;5012954;28;20053;-86
2022/12/24 09:26:40;;;;;;;1.38;1.38;;;8.50;99.90;;;;;;5011320;28;20545;-86
2022/12/24 09:29:06;;;;;;;2.78;2.55;;;8.50;99.90;;;;;;5042562;28;20068;-85
2022/12/24 09:31:35;;;;;;;0.52;0.52;;;8.40;99.90;;;;;;5033433;28;20948;-86
2022/12/24 09:34:01;;;;;;;0.50;0.50;;;8.40;99.90;;;;;;5028463;28;20053;-85
2022/12/24 09:36:27;;;;;;;0.30;0.30;;;8.40;99.90;;;;;;5030173;28;20048;-85
2022/12/24 09:38:52;;;;;;;0.50;0.50;;;8.40;99.90;;;;;;5028521;28;20044;-86
2022/12/24 09:41:30;;;;;;;0.43;0.43;;;8.40;99.90;;;;;;5006206;28;20047;-84
2022/12/24 09:44:28;;;;;;;0.50;0.50;;;8.40;99.90;;;;;;5033330;28;20087;-85
2022/12/24 09:46:55;;;;;;;7.07;0.82;;;8.40;99.90;;;;;;4984455;28;20050;-84
2022/12/24 09:49:50;;;;;;;0.50;0.50;;;8.40;99.90;;;;;;5047095;28;20037;-84
2022/12/24 09:52:28;;;;;;;0.40;0.40;;;8.50;99.90;;;;;;5030162;28;20134;-84
2022/12/24 09:55:33;;;;;;;0.50;0.50;;;8.50;99.90;;;;;;5029183;28;20136;-86
2022/12/24 09:58:02;;;;;;;1.23;1.23;;;8.50;99.90;;;;;;5018279;28;20526;-84
2022/12/24 10:00:34;;;;;;;0.50;0.50;;;8.50;99.90;;;;;;5022641;28;20235;-85
2022/12/24 10:02:59;;;;;;;0.47;0.47;;;8.50;99.90;;;;;;5032652;28;21077;-85
2022/12/24 10:05:35;;;;;;;0.50;0.50;;;8.50;99.90;;;;;;5041057;28;20132;-84
2022/12/24 10:08:39;;;;;;;1.83;1.83;;;8.50;99.90;;;;;;5025996;28;20179;-86
2022/12/24 10:11:34;;;;;;;0.35;0.35;;;8.60;99.90;;;;;;5003850;28;20086;-84
2022/12/24 10:14:02;;;;;;;0.40;0.40;;;8.60;99.90;;;;;;5010965;28;20052;-84
2022/12/24 10:16:49;;;;;;;0.50;0.50;;;8.70;99.90;;;;;;5025398;28;20705;-86
2022/12/24 10:19:50;;;;;;;0.43;0.43;;;8.70;99.90;;;;;;5028001;28;20102;-84
2022/12/24 10:22:35;;;;;;;2.13;1.52;;;8.80;99.90;;;;;;5038789;28;20143;-85
2022/12/24 10:25:31;;;;;;;0.80;0.80;;;8.90;99.90;;;;;;5045243;28;20057;-85
2022/12/24 10:28:00;;;;;;;1.08;1.00;;;8.90;99.90;;;;;;5019682;28;20137;-85
2022/12/24 10:30:26;;;;;;;2.63;2.42;;;9.00;99.90;;;;;;5041447;28;20157;-85
2022/12/24 10:32:53;;;;;;;1.15;1.13;;;9.10;99.90;;;;;;5043528;28;20131;-86
2022/12/24 10:35:26;;;;;;;0.32;0.32;;;9.10;99.90;;;;;;5047994;28;20045;-86
2022/12/24 10:37:52;;;;;;;0.70;0.70;;;9.20;99.90;;;;;;5032312;28;20067;-84
2022/12/24 10:40:36;;;;;;;0.43;0.43;;;9.30;99.90;;;;;;5010673;28;20048;-86
2022/12/24 10:43:30;;;;;;;0.50;0.50;;;9.30;99.90;;;;;;5028600;28;20037;-85
2022/12/24 10:46:03;;;;;;;0.40;0.40;;;9.30;99.90;;;;;;5024838;28;20049;-83
2022/12/24 10:48:31;;;;;;;0.40;0.40;;;9.30;99.90;;;;;;5022884;28;20067;-83
2022/12/24 10:50:59;;;;;;;1.10;0.50;;;9.40;99.90;;;;;;5041782;28;20045;-86
2022/12/24 10:53:50;;;;;;;0.63;0.63;;;9.40;99.90;;;;;;5026631;28;20140;-85
2022/12/24 10:56:20;;;;;;;0.60;0.60;;;9.40;99.90;;;;;;5032863;28;20053;-85
2022/12/24 10:58:52;;;;;;;0.50;0.50;;;9.50;99.90;;;;;;5033162;28;20045;-84
2022/12/24 11:01:19;;;;;;;0.50;0.50;;;9.50;99.90;;;;;;5027525;28;20052;-85
2022/12/24 11:03:58;;;;;;;0.57;0.57;;;9.50;99.90;;;;;;5028083;28;20067;-85
2022/12/24 11:06:23;;;;;;;1.55;1.45;;;9.50;99.90;;;;;;5031765;28;20060;-84
2022/12/24 11:08:49;;;;;;;18.67;2.78;;;9.50;99.90;;;;;;5009349;28;20045;-84
2022/12/24 11:11:20;;;;;;;0.35;0.35;;;9.50;99.90;;;;;;5019997;28;20659;-85
2022/12/24 11:13:55;;;;;;;0.52;0.52;;;9.50;99.90;;;;;;5022528;28;20053;-86
2022/12/24 11:16:30;;;;;;;0.52;0.52;;;9.50;99.90;;;;;;5026719;28;20205;-83
2022/12/24 11:19:00;;;;;;;2.05;1.25;;;9.50;99.90;;;;;;5042677;28;20619;-85
2022/12/24 11:21:27;;;;;;;0.38;0.38;;;9.50;99.90;;;;;;5037468;28;20051;-83
2022/12/24 11:23:56;;;;;;;0.50;0.50;;;9.50;99.90;;;;;;5037288;28;20059;-88
2022/12/24 11:26:24;;;;;;;0.77;0.75;;;9.50;99.90;;;;;;5041760;28;20037;-84
2022/12/24 11:29:19;;;;;;;0.47;0.47;;;9.50;99.90;;;;;;5036437;28;20049;-86
2022/12/24 11:31:45;;;;;;;0.40;0.40;;;9.60;99.90;;;;;;5016502;28;20064;-85
2022/12/24 11:34:31;;;;;;;0.47;0.47;;;9.60;99.90;;;;;;5024779;28;20099;-85
2022/12/24 11:37:20;;;;;;;0.50;0.50;;;9.60;99.90;;;;;;5031542;28;20064;-85
2022/12/24 11:39:53;;;;;;;0.47;0.47;;;9.60;99.90;;;;;;5010293;28;20060;-85
2022/12/24 11:42:31;;;;;;;0.63;0.63;;;9.60;99.90;;;;;;5032341;28;20045;-86
2022/12/24 11:44:58;;;;;;;0.88;0.82;;;9.60;99.90;;;;;;5023373;28;20041;-85
2022/12/24 11:47:34;;;;;;;0.40;0.40;;;9.60;99.90;;;;;;5030648;28;20122;-84
2022/12/24 11:50:23;;;;;;;0.70;0.70;;;9.60;99.90;;;;;;5026572;28;20049;-84
2022/12/24 11:52:56;;;;;;;0.70;0.70;;;9.70;99.90;;;;;;5011993;28;20057;-85
2022/12/24 11:55:46;;;;;;;4.30;0.80;;;9.60;99.90;;;;;;5018475;28;20071;-86
2022/12/24 11:58:39;;;;;;;0.50;0.50;;;9.70;99.90;;;;;;5026181;28;20475;-85
2022/12/24 12:01:17;;;;;;;1.20;1.20;;;8.60;99.90;;;;;;5015860;28;20044;-84
2022/12/24 12:04:15;;;;;;;0.40;0.40;;;9.70;99.90;;;;;;5007329;28;20233;-86
2022/12/24 12:06:49;;;;;;;0.60;0.60;;;9.70;99.90;;;;;;5011826;28;20733;-85
2022/12/24 12:09:30;;;;;;;0.45;0.45;;;9.70;99.90;;;;;;5022503;28;20176;-85
2022/12/24 12:12:11;;;;;;;0.50;0.50;;;9.70;99.90;;;;;;5042594;28;20060;-85
2022/12/24 12:15:24;;;;;;;0.60;0.60;;;9.70;99.90;;;;;;5023159;28;20124;-84
2022/12/24 12:18:10;;;;;;;0.60;0.60;;;9.70;99.90;;;;;;4926174;28;20473;-84
2022/12/24 12:20:47;;;;;;;0.40;0.40;;;9.70;99.90;;;;;;4930038;28;20560;-85
2022/12/24 12:23:15;;;;;;;4.78;2.10;;;9.70;99.90;;;;;;4986964;28;20068;-85
2022/12/24 12:25:59;;;;;;;0.30;0.30;;;9.60;99.90;;;;;;5040637;28;21133;-85
2022/12/24 12:28:51;;;;;;;0.40;0.40;;;9.60;99.90;;;;;;5035295;28;20071;-84
2022/12/24 12:31:26;;;;;;;0.40;0.40;;;9.50;99.90;;;;;;4988125;28;20069;-85
2022/12/24 12:34:12;;;;;;;0.45;0.45;;;9.60;99.90;;;;;;5021041;28;20048;-84
2022/12/24 12:36:48;;;;;;;0.83;0.83;;;9.50;99.90;;;;;;5009120;28;20052;-83
2022/12/24 12:39:14;;;;;;;0.73;0.73;;;9.50;99.90;;;;;;5008976;28;20053;-85
2022/12/24 12:42:11;;;;;;;0.38;0.38;;;9.50;99.90;;;;;;5013591;28;20091;-85
2022/12/24 12:44:58;;;;;;;0.40;0.40;;;9.50;99.90;;;;;;4999926;28;20053;-84
2022/12/24 12:47:33;;;;;;;;;;;9.50;99.90;;;;;;5015917;28;20057;-84
2022/12/24 12:50:24;;;;;;;0.40;0.40;;;9.60;99.90;;;;;;5025966;28;19938;-86
2022/12/24 12:53:21;;;;;;;1.00;0.82;;;9.60;99.90;;;;;;5032682;28;20049;-85
2022/12/24 12:56:05;;;;;;;0.63;0.63;;;9.60;99.90;;;;;;5043917;28;20400;-85
2022/12/24 12:58:34;;;;;;;0.40;0.40;;;9.70;99.90;;;;;;5027348;28;20056;-84
2022/12/24 13:01:19;;;;;;;0.60;0.60;;;9.70;99.90;;;;;;5041437;28;20067;-86
2022/12/24 13:04:10;;;;;;;0.50;0.50;;;9.80;99.90;;;;;;5046034;28;20152;-86
2022/12/24 13:07:21;;;;;;;4.45;3.72;;;9.80;99.90;;;;;;5003246;28;20180;-85
2022/12/24 13:10:01;;;;;;;4.30;0.98;;;9.80;99.90;;;;;;5034925;28;20644;-86
2022/12/24 13:12:42;;;;;;;1.85;0.90;;;9.70;99.90;;;;;;5030260;28;20045;-85
2022/12/24 13:15:30;;;;;;;1.52;1.42;;;9.70;99.90;;;;;;5006165;28;20555;-85
2022/12/24 13:18:02;;;;;;;0.65;0.60;;;9.70;99.90;;;;;;5026866;28;20128;-86
2022/12/24 13:20:31;;;;;;;0.30;0.30;;;9.70;99.90;;;;;;5031371;28;20487;-84
2022/12/24 13:23:17;;;;;;;0.40;0.40;;;9.70;99.90;;;;;;5054221;28;20086;-85
2022/12/24 13:25:46;;;;;;;0.43;0.40;;;9.60;99.90;;;;;;5039187;28;20057;-85